Time;durP1;ratioP1;P1;durP2;ratioP2;P2;SDS_P1;SDS_P2;PMS_P1;PMS_P2;Temp;Humidity;BMP_temperature;BMP_pressure;BME280_temperature;BME280_humidity;BME280_pressure;Samples;Min_cycle;Max_cycle;Signal;HPM_P1;HPM_P2
2023/12/21 00:00:41;;;;;;;;;;;;;;;7.71;100.00;100713.06;5054130;28;19921;-78
2023/12/21 00:03:07;;;;;;;;;;;;;;;7.69;100.00;100707.84;5075253;28;19916;-76
2023/12/21 00:05:32;;;;;;;;;;;;;;;7.81;100.00;100699.13;5055518;28;19917;-78
2023/12/21 00:07:59;;;;;;;;;;;;;;;7.73;100.00;100693.94;5057985;28;19920;-77
2023/12/21 00:10:25;;;;;;;;;;;;;;;7.73;100.00;100680.00;5053139;28;19924;-77
2023/12/21 00:12:50;;;;;;;;;;;;;;;7.69;100.00;100668.72;5055518;28;20282;-78
2023/12/21 00:15:15;;;;;;;;;;;;;;;7.70;100.00;100666.97;5060495;28;19920;-78
2023/12/21 00:17:41;;;;;;;;;;;;;;;7.72;100.00;100662.66;5064564;28;20340;-78
2023/12/21 00:20:08;;;;;;;;;;;;;;;7.74;100.00;100661.78;5049600;28;20374;-78
2023/12/21 00:22:33;;;;;;;;;;;;;;;7.76;100.00;100669.59;5086978;28;20464;-78
2023/12/21 00:24:58;;;;;;;;;;;;;;;7.71;100.00;100655.69;5078910;28;19923;-77
2023/12/21 00:27:24;;;;;;;;;;;;;;;7.72;100.00;100637.41;5069196;28;19928;-78
2023/12/21 00:29:49;;;;;;;;;;;;;;;7.69;100.00;100642.66;5181684;22;19973;-79
2023/12/21 00:32:16;;;;;;;;;;;;;;;7.71;100.00;100633.06;5035595;28;20036;-79
2023/12/21 00:34:42;;;;;;;;;;;;;;;7.70;100.00;100627.84;5039685;28;19927;-78
2023/12/21 00:37:08;;;;;;;;;;;;;;;7.69;100.00;100631.34;5038391;28;19950;-77
2023/12/21 00:39:33;;;;;;;;;;;;;;;7.69;100.00;100636.56;5046287;28;19920;-78
2023/12/21 00:41:59;;;;;;;;;;;;;;;7.70;100.00;100625.25;5070130;22;19972;-79
2023/12/21 00:44:24;;;;;;;;;;;;;;;7.78;100.00;100620.88;4994141;28;19929;-77
2023/12/21 00:46:49;;;;;;;;;;;;;;;7.69;100.00;100620.94;5024516;28;19926;-79
2023/12/21 00:49:15;;;;;;;;;;;;;;;7.68;100.00;100600.94;5017030;28;19925;-78
2023/12/21 00:51:41;;;;;;;;;;;;;;;7.69;100.00;100598.31;5022254;28;19925;-78
2023/12/21 00:54:06;;;;;;;;;;;;;;;7.69;100.00;100595.69;5011064;28;19918;-75
2023/12/21 00:56:31;;;;;;;;;;;;;;;7.72;100.00;100589.63;5001567;28;19934;-78
2023/12/21 00:58:59;;;;;;;;;;;;;;;7.68;100.00;100587.88;5031002;28;20383;-76
2023/12/21 01:01:25;;;;;;;;;;;;;;;7.69;100.00;100581.81;5090013;22;20020;-78
2023/12/21 01:03:50;;;;;;;;;;;;;;;7.69;100.00;100585.28;5120780;22;20514;-78
2023/12/21 01:06:19;;;;;;;;;;;;;;;7.66;100.00;100580.06;5069896;28;20411;-78
2023/12/21 01:08:44;;;;;;;;;;;;;;;7.65;100.00;100574.88;5072237;28;19917;-78
2023/12/21 01:11:10;;;;;;;;;;;;;;;7.66;100.00;100573.97;5070056;28;19920;-77
2023/12/21 01:13:36;;;;;;;;;;;;;;;7.67;100.00;100562.66;5059099;28;20298;-78
2023/12/21 01:16:01;;;;;;;;;;;;;;;7.67;100.00;100565.28;5069585;28;19916;-78
2023/12/21 01:18:27;;;;;;;;;;;;;;;7.65;100.00;100548.78;5088949;22;19948;-80
2023/12/21 01:20:52;;;;;;;;;;;;;;;7.64;100.00;100540.06;5035444;28;20397;-78
2023/12/21 01:23:17;;;;;;;;;;;;;;;7.65;100.00;100546.19;5022793;28;19929;-79
2023/12/21 01:25:42;;;;;;;;;;;;;;;7.66;100.00;100547.88;5021058;28;19921;-80
2023/12/21 01:28:08;;;;;;;;;;;;;;;7.66;100.00;100547.88;5039583;28;19943;-79
2023/12/21 01:30:33;;;;;;;;;;;;;;;7.64;100.00;100542.69;5028993;28;19922;-77
2023/12/21 01:32:58;;;;;;;;;;;;;;;7.63;100.00;100538.34;5037515;28;19926;-79
2023/12/21 01:35:24;;;;;;;;;;;;;;;7.62;100.00;100534.00;5033435;28;20396;-81
2023/12/21 01:37:49;;;;;;;;;;;;;;;7.64;100.00;100516.59;5030948;28;19929;-77
2023/12/21 01:40:15;;;;;;;;;;;;;;;7.70;100.00;100507.88;5030836;28;19925;-79
2023/12/21 01:42:40;;;;;;;;;;;;;;;7.70;100.00;100513.97;5040836;28;20382;-78
2023/12/21 01:45:06;;;;;;;;;;;;;;;7.69;100.00;100516.59;5021887;28;19927;-80
2023/12/21 01:47:31;;;;;;;;;;;;;;;7.67;100.00;100519.22;5043017;28;19964;-78
2023/12/21 01:49:57;;;;;;;;;;;;;;;7.70;100.00;100513.09;5044755;28;20274;-78
2023/12/21 01:52:22;;;;;;;;;;;;;;;7.70;100.00;100503.56;5052497;28;19925;-78
2023/12/21 01:54:48;;;;;;;;;;;;;;;7.69;100.00;100493.97;5026221;28;20342;-78
2023/12/21 01:57:14;;;;;;;;;;;;;;;7.67;100.00;100489.66;5039597;28;20394;-78
2023/12/21 01:59:39;;;;;;;;;;;;;;;7.67;100.00;100494.84;5054286;28;19935;-78
2023/12/21 02:02:06;;;;;;;;;;;;;;;7.66;100.00;100494.00;5058760;28;20293;-78
2023/12/21 02:04:31;;;;;;;;;;;;;;;7.67;100.00;100502.69;5037147;28;20384;-79
2023/12/21 02:06:57;;;;;;;;;;;;;;;7.67;100.00;100503.56;5060723;28;20008;-79
2023/12/21 02:09:22;;;;;;;;;;;;;;;7.72;100.00;100506.16;5049455;28;20307;-78
2023/12/21 02:11:47;;;;;;;;;;;;;;;7.68;100.00;100509.66;5032046;28;20275;-79
2023/12/21 02:14:13;;;;;;;;;;;;;;;7.67;100.00;100513.13;5036255;28;19925;-79
2023/12/21 02:16:40;;;;;;;;;;;;;;;7.67;100.00;100506.19;5053786;28;20063;-79
2023/12/21 02:19:06;;;;;;;;;;;;;;;7.66;100.00;100504.44;5042450;28;20003;-79
2023/12/21 02:21:32;;;;;;;;;;;;;;;7.67;100.00;100500.06;5045836;28;19928;-79
2023/12/21 02:24:00;;;;;;;;;;;;;;;7.65;100.00;100492.25;5041570;28;20042;-79
2023/12/21 02:26:26;;;;;;;;;;;;;;;7.70;100.00;100484.41;5029920;28;19925;-79
2023/12/21 02:28:51;;;;;;;;;;;;;;;7.68;100.00;100479.19;5041910;28;20424;-80
2023/12/21 02:31:17;;;;;;;;;;;;;;;7.67;100.00;100474.00;5034036;28;20006;-79
2023/12/21 02:33:44;;;;;;;;;;;;;;;7.70;100.00;100458.31;5034163;28;19921;-78
2023/12/21 02:36:09;;;;;;;;;;;;;;;7.68;100.00;100457.47;5026421;28;19921;-79
2023/12/21 02:38:35;;;;;;;;;;;;;;;7.68;100.00;100441.84;5032122;28;19936;-80
2023/12/21 02:41:00;;;;;;;;;;;;;;;7.69;100.00;100451.41;5039133;28;19925;-79
2023/12/21 02:43:25;;;;;;;;;;;;;;;7.74;100.00;100436.56;5058200;28;19960;-78
2023/12/21 02:45:51;;;;;;;;;;;;;;;7.68;100.00;100439.22;5034347;28;20015;-79
2023/12/21 02:48:16;;;;;;;;;;;;;;;7.69;100.00;100435.75;5035021;28;19925;-79
2023/12/21 02:50:41;;;;;;;;;;;;;;;7.69;100.00;100439.22;5037119;28;20019;-79
2023/12/21 02:53:06;;;;;;;;;;;;;;;7.67;100.00;100438.38;5035724;28;20023;-79
2023/12/21 02:55:34;;;;;;;;;;;;;;;7.73;100.00;100451.38;5045512;28;19924;-79
2023/12/21 02:58:00;;;;;;;;;;;;;;;7.71;100.00;100431.38;5037880;28;19998;-79
2023/12/21 03:00:27;;;;;;;;;;;;;;;7.69;100.00;100420.09;5034714;28;19963;-79
2023/12/21 03:02:52;;;;;;;;;;;;;;;7.70;100.00;100424.41;5046575;28;19925;-78
2023/12/21 03:05:17;;;;;;;;;;;;;;;7.69;100.00;100428.78;5041507;28;19920;-78
2023/12/21 03:07:42;;;;;;;;;;;;;;;7.70;100.00;100425.31;5035297;28;20008;-78
2023/12/21 03:10:08;;;;;;;;;;;;;;;7.67;100.00;100409.69;5024161;28;19984;-78
2023/12/21 03:12:33;;;;;;;;;;;;;;;7.65;100.00;100398.38;5030927;28;19925;-79
2023/12/21 03:14:59;;;;;;;;;;;;;;;7.67;100.00;100395.75;5044576;28;20426;-81
2023/12/21 03:17:24;;;;;;;;;;;;;;;7.68;100.00;100379.25;5045127;28;19929;-79
2023/12/21 03:19:49;;;;;;;;;;;;;;;7.68;100.00;100364.44;5043865;28;20047;-81
2023/12/21 03:22:15;;;;;;;;;;;;;;;7.69;100.00;100347.94;5036286;28;20400;-79
2023/12/21 03:24:40;;;;;;;;;;;;;;;7.67;100.00;100336.66;5048184;28;20369;-80
2023/12/21 03:27:05;;;;;;;;;;;;;;;7.67;100.00;100334.06;5035039;28;20377;-78
2023/12/21 03:29:31;;;;;;;;;;;;;;;7.71;100.00;100321.84;5030937;28;19929;-79
2023/12/21 03:31:56;;;;;;;;;;;;;;;7.73;100.00;100325.28;5033788;28;19964;-80
2023/12/21 03:34:22;;;;;;;;;;;;;;;7.68;100.00;100314.91;5035816;28;20382;-79
2023/12/21 03:36:47;;;;;;;;;;;;;;;7.68;100.00;100319.25;5050991;28;20332;-80
2023/12/21 03:39:12;;;;;;;;;;;;;;;7.68;100.00;100314.03;5036073;28;20386;-80
2023/12/21 03:41:38;;;;;;;;;;;;;;;7.70;100.00;100312.28;5052004;28;19917;-79
2023/12/21 03:44:03;;;;;;;;;;;;;;;7.72;100.00;100314.00;5032002;28;20393;-80
2023/12/21 03:46:28;;;;;;;;;;;;;;;7.70;100.00;100304.44;5038750;28;20488;-81
2023/12/21 03:48:54;;;;;;;;;;;;;;;7.73;100.00;100297.47;5032633;28;19921;-79
2023/12/21 03:51:19;;;;;;;;;;;;;;;7.71;100.00;100294.00;5026822;28;19925;-80
2023/12/21 03:53:44;;;;;;;;;;;;;;;7.75;100.00;100294.84;5048482;28;19944;-80
2023/12/21 03:56:11;;;;;;;;;;;;;;;7.73;100.00;100288.78;5037909;28;19997;-78
2023/12/21 03:58:37;;;;;;;;;;;;;;;7.72;100.00;100281.84;5043872;28;20023;-80
2023/12/21 04:01:03;;;;;;;;;;;;;;;7.73;100.00;100268.78;5034754;28;19925;-80
2023/12/21 04:03:29;;;;;;;;;;;;;;;7.74;100.00;100270.53;5050584;28;20405;-79
2023/12/21 04:05:55;;;;;;;;;;;;;;;7.74;100.00;100265.31;5051356;28;19925;-79
2023/12/21 04:08:21;;;;;;;;;;;;;;;7.76;100.00;100270.50;5047600;28;19920;-79
2023/12/21 04:10:47;;;;;;;;;;;;;;;7.77;100.00;100264.41;5044480;28;19921;-79
2023/12/21 04:13:12;;;;;;;;;;;;;;;7.78;100.00;100256.56;5034211;28;19963;-79
2023/12/21 04:15:37;;;;;;;;;;;;;;;7.79;100.00;100254.81;5028946;28;19925;-79
2023/12/21 04:18:03;;;;;;;;;;;;;;;7.76;100.00;100241.81;5045101;28;20329;-79
2023/12/21 04:20:28;;;;;;;;;;;;;;;7.77;100.00;100248.75;5036063;28;19976;-79
2023/12/21 04:22:53;;;;;;;;;;;;;;;7.78;100.00;100240.06;5050911;28;20008;-79
2023/12/21 04:25:22;;;;;;;;;;;;;;;7.78;100.00;100227.88;5036920;28;19920;-79
2023/12/21 04:27:47;;;;;;;;;;;;;;;7.82;100.00;100215.66;5036846;28;19920;-77
2023/12/21 04:30:12;;;;;;;;;;;;;;;7.91;100.00;100227.75;5050430;28;19924;-79
2023/12/21 04:32:38;;;;;;;;;;;;;;;7.90;100.00;100211.25;5034564;28;19955;-79
2023/12/21 04:35:07;;;;;;;;;;;;;;;7.88;100.00;100201.69;5036365;28;19925;-79
2023/12/21 04:37:32;;;;;;;;;;;;;;;7.91;100.00;100192.06;5054818;28;20368;-81
2023/12/21 04:39:58;;;;;;;;;;;;;;;7.93;100.00;100172.06;5056167;28;19945;-80
2023/12/21 04:42:23;;;;;;;;;;;;;;;7.97;100.00;100171.16;5035487;28;19958;-79
2023/12/21 04:44:48;;;;;;;;;;;;;;;8.00;100.00;100177.22;5032623;28;19920;-80
2023/12/21 04:47:13;;;;;;;;;;;;;;;8.06;100.00;100187.56;5051797;28;20315;-79
2023/12/21 04:49:39;;;;;;;;;;;;;;;8.05;100.00;100178.03;5028492;28;20378;-79
2023/12/21 04:52:05;;;;;;;;;;;;;;;8.06;100.00;100158.84;5053326;28;19924;-81
2023/12/21 04:54:30;;;;;;;;;;;;;;;8.12;100.00;100145.75;5055599;28;19923;-79
2023/12/21 04:56:55;;;;;;;;;;;;;;;8.12;100.00;100158.81;5027524;28;19979;-80
2023/12/21 04:59:21;;;;;;;;;;;;;;;8.15;100.00;100133.50;5024154;28;20401;-77
2023/12/21 05:01:50;;;;;;;;;;;;;;;8.16;100.00;100121.34;5055693;28;19916;-79
2023/12/21 05:04:15;;;;;;;;;;;;;;;8.17;100.00;100110.00;5046851;28;19916;-79
2023/12/21 05:06:41;;;;;;;;;;;;;;;8.19;100.00;100100.41;5046303;28;20389;-78
2023/12/21 05:09:06;;;;;;;;;;;;;;;8.23;100.00;100096.88;5033637;28;20440;-79
2023/12/21 05:11:31;;;;;;;;;;;;;;;8.25;100.00;100102.09;5061012;28;19932;-78
2023/12/21 05:13:57;;;;;;;;;;;;;;;8.31;100.00;100113.28;5052773;28;19924;-79
2023/12/21 05:16:22;;;;;;;;;;;;;;;8.31;100.00;100102.00;5029211;28;19928;-78
2023/12/21 05:18:49;;;;;;;;;;;;;;;8.30;100.00;100108.09;5046410;28;19928;-79
2023/12/21 05:21:18;;;;;;;;;;;;;;;8.40;100.00;100103.59;5029578;28;19956;-80
2023/12/21 05:23:43;;;;;;;;;;;;;;;8.40;100.00;100119.25;5045668;28;19923;-78
2023/12/21 05:26:12;;;;;;;;;;;;;;;8.41;100.00;100113.16;5033084;28;20366;-79
2023/12/21 05:28:42;;;;;;;;;;;;;;;8.42;100.00;100092.25;5050426;28;20302;-79
2023/12/21 05:31:10;;;;;;;;;;;;;;;8.42;100.00;100078.31;5033601;28;20036;-79
2023/12/21 05:33:36;;;;;;;;;;;;;;;8.46;100.00;100080.03;5045540;28;19959;-79
2023/12/21 05:36:03;;;;;;;;;;;;;;;8.45;100.00;100084.41;5033424;28;19971;-78
2023/12/21 05:38:29;;;;;;;;;;;;;;;8.54;100.00;100082.56;5044486;28;19956;-80
2023/12/21 05:40:54;;;;;;;;;;;;;;;8.49;100.00;100069.53;5036086;28;19972;-76
2023/12/21 05:43:21;;;;;;;;;;;;;;;8.52;100.00;100079.97;5031895;28;20003;-76
2023/12/21 05:45:46;;;;;;;;;;;;;;;8.50;100.00;100079.09;5020340;28;19955;-78
2023/12/21 05:48:12;;;;;;;;;;;;;;;8.50;100.00;100079.09;5051555;28;20271;-78
2023/12/21 05:50:37;;;;;;;;;;;;;;;8.46;100.00;100082.66;5026346;28;20259;-81
2023/12/21 05:53:03;;;;;;;;;;;;;;;8.49;100.00;100085.22;5026422;28;19972;-78
2023/12/21 05:55:31;;;;;;;;;;;;;;;8.48;100.00;100091.34;5022391;28;19943;-77
2023/12/21 05:57:56;;;;;;;;;;;;;;;8.51;100.00;100088.66;5022994;28;19932;-77
2023/12/21 06:00:22;;;;;;;;;;;;;;;8.57;100.00;100095.56;5042077;28;19921;-78
2023/12/21 06:02:47;;;;;;;;;;;;;;;8.58;100.00;100086.84;5031559;28;19966;-78
2023/12/21 06:05:13;;;;;;;;;;;;;;;8.57;100.00;100096.41;5040769;28;19928;-79
2023/12/21 06:07:39;;;;;;;;;;;;;;;8.61;100.00;100089.41;5050232;28;20430;-78
2023/12/21 06:10:04;;;;;;;;;;;;;;;8.66;100.00;100085.84;5033657;28;20011;-78
2023/12/21 06:12:30;;;;;;;;;;;;;;;8.59;100.00;100067.66;5045298;28;20290;-78
2023/12/21 06:14:56;;;;;;;;;;;;;;;8.53;100.00;100062.53;5033144;28;19927;-77
2023/12/21 06:17:21;;;;;;;;;;;;;;;8.52;100.00;100071.25;5037182;28;20441;-76
2023/12/21 06:19:47;;;;;;;;;;;;;;;8.42;100.00;100066.16;5060246;28;19954;-79
2023/12/21 06:22:12;;;;;;;;;;;;;;;8.40;100.00;100046.16;5033030;28;20172;-78
2023/12/21 06:24:37;;;;;;;;;;;;;;;8.39;100.00;100023.53;5043628;28;19968;-76
2023/12/21 06:27:03;;;;;;;;;;;;;;;8.29;100.00;100021.09;5038504;28;19970;-78
2023/12/21 06:29:28;;;;;;;;;;;;;;;8.27;100.00;100030.69;5036938;28;19978;-78
2023/12/21 06:31:54;;;;;;;;;;;;;;;8.26;100.00;100033.31;5045554;28;19917;-76
2023/12/21 06:34:19;;;;;;;;;;;;;;;8.27;100.00;100029.81;5023388;28;19924;-79
2023/12/21 06:36:45;;;;;;;;;;;;;;;8.23;100.00;100023.81;5031655;28;20344;-79
2023/12/21 06:39:10;;;;;;;;;;;;;;;8.27;100.00;100019.38;5050524;28;19927;-77
2023/12/21 06:41:35;;;;;;;;;;;;;;;8.25;100.00;100022.03;5035757;28;20298;-76
2023/12/21 06:44:01;;;;;;;;;;;;;;;8.32;100.00;100022.81;5032969;28;19924;-76
2023/12/21 06:46:26;;;;;;;;;;;;;;;8.31;100.00;100032.34;5049794;28;19928;-77
2023/12/21 06:48:51;;;;;;;;;;;;;;;8.30;100.00;100028.03;5036404;28;20364;-76
2023/12/21 06:51:17;;;;;;;;;;;;;;;8.34;100.00;100015.78;5028293;28;19925;-76
2023/12/21 06:53:43;;;;;;;;;;;;;;;8.34;100.00;100002.75;5033422;28;19921;-76
2023/12/21 06:56:11;;;;;;;;;;;;;;;8.32;100.00;100010.59;5043573;28;20337;-75
2023/12/21 06:58:37;;;;;;;;;;;;;;;8.30;100.00;99999.34;5041392;28;19925;-79
2023/12/21 07:01:02;;;;;;;;;;;;;;;8.36;100.00;99992.28;5052957;28;20332;-77
2023/12/21 07:03:28;;;;;;;;;;;;;;;8.35;100.00;99993.16;5047909;28;19972;-77
2023/12/21 07:05:53;;;;;;;;;;;;;;;8.30;100.00;99968.00;5048238;28;20271;-76
2023/12/21 07:08:18;;;;;;;;;;;;;;;8.33;100.00;99969.69;5033784;28;20453;-77
2023/12/21 07:10:44;;;;;;;;;;;;;;;8.35;100.00;99960.09;5038753;28;19921;-76
2023/12/21 07:13:10;;;;;;;;;;;;;;;8.31;100.00;99951.44;5052510;28;20016;-80
2023/12/21 07:15:35;;;;;;;;;;;;;;;8.29;100.00;99937.56;5035667;28;19925;-79
2023/12/21 07:18:00;;;;;;;;;;;;;;;8.28;100.00;99937.59;5035531;28;19932;-76
2023/12/21 07:20:28;;;;;;;;;;;;;;;8.30;100.00;99947.13;5048849;28;20386;-79
2023/12/21 07:22:53;;;;;;;;;;;;;;;8.39;100.00;99945.22;5043219;28;19962;-78
2023/12/21 07:25:19;;;;;;;;;;;;;;;8.36;100.00;99937.44;5036010;28;19924;-77
2023/12/21 07:27:44;;;;;;;;;;;;;;;8.43;100.00;99924.28;5043378;28;19920;-76
2023/12/21 07:30:10;;;;;;;;;;;;;;;8.40;100.00;99916.47;5048086;28;19921;-78
2023/12/21 07:32:37;;;;;;;;;;;;;;;8.46;100.00;99910.31;5044875;28;19924;-78
2023/12/21 07:35:02;;;;;;;;;;;;;;;8.46;100.00;99903.38;5048426;28;19928;-79
2023/12/21 07:37:27;;;;;;;;;;;;;;;8.46;100.00;99905.97;5045602;28;19921;-79
2023/12/21 07:39:52;;;;;;;;;;;;;;;8.48;100.00;99887.69;5034500;28;19928;-79
2023/12/21 07:42:20;;;;;;;;;;;;;;;8.49;100.00;99879.81;5030846;28;19920;-79
2023/12/21 07:44:49;;;;;;;;;;;;;;;8.51;100.00;99882.38;5051392;28;20266;-79
2023/12/21 07:47:14;;;;;;;;;;;;;;;8.53;100.00;99890.19;5049233;28;19928;-78
2023/12/21 07:49:39;;;;;;;;;;;;;;;8.54;100.00;99892.78;5030255;28;19976;-78
2023/12/21 07:52:05;;;;;;;;;;;;;;;8.57;100.00;99887.50;5031534;28;19925;-79
2023/12/21 07:54:30;;;;;;;;;;;;;;;8.60;100.00;99881.34;5042265;28;19921;-78
2023/12/21 07:56:55;;;;;;;;;;;;;;;8.56;100.00;99885.78;5034839;28;19928;-79
2023/12/21 07:59:22;;;;;;;;;;;;;;;8.59;100.00;99875.28;5033268;28;19921;-78
2023/12/21 08:01:48;;;;;;;;;;;;;;;8.54;100.00;99874.50;5031523;28;19944;-79
2023/12/21 08:04:13;;;;;;;;;;;;;;;8.55;100.00;99864.91;5032489;28;20375;-78
2023/12/21 08:06:38;;;;;;;;;;;;;;;8.49;100.00;99879.81;5035285;28;19924;-78
2023/12/21 08:09:04;;;;;;;;;;;;;;;8.51;100.00;99871.94;5040874;28;19927;-78
2023/12/21 08:11:30;;;;;;;;;;;;;;;8.48;100.00;99867.63;5032015;28;20351;-79
2023/12/21 08:13:55;;;;;;;;;;;;;;;8.40;100.00;99866.03;5034839;28;20103;-80
2023/12/21 08:16:20;;;;;;;;;;;;;;;8.37;100.00;99856.50;5034988;28;19970;-79
2023/12/21 08:18:46;;;;;;;;;;;;;;;8.36;100.00;99859.13;5033148;28;20007;-78
2023/12/21 08:21:11;;;;;;;;;;;;;;;8.39;100.00;99857.34;5025873;28;20020;-79
2023/12/21 08:23:37;;;;;;;;;;;;;;;8.42;100.00;99840.75;5033303;28;20204;-79
2023/12/21 08:26:03;;;;;;;;;;;;;;;8.46;100.00;99832.00;5048488;28;19916;-75
2023/12/21 08:28:31;;;;;;;;;;;;;;;8.40;100.00;99843.38;5045323;28;19921;-79
2023/12/21 08:30:57;;;;;;;;;;;;;;;8.46;100.00;99837.22;5033038;28;19921;-78
2023/12/21 08:33:22;;;;;;;;;;;;;;;8.48;100.00;99836.31;5026423;28;19935;-80
2023/12/21 08:35:47;;;;;;;;;;;;;;;8.48;100.00;99830.22;5044415;28;20324;-80
2023/12/21 08:38:14;;;;;;;;;;;;;;;8.54;100.00;99840.53;5036995;28;20345;-77
2023/12/21 08:40:39;;;;;;;;;;;;;;;8.48;100.00;99845.91;5030762;28;19968;-78
2023/12/21 08:43:06;;;;;;;;;;;;;;;8.47;100.00;99841.56;5030150;28;19971;-80
2023/12/21 08:45:32;;;;;;;;;;;;;;;8.46;100.00;99826.78;5020141;28;20373;-79
2023/12/21 08:47:57;;;;;;;;;;;;;;;8.59;100.00;99812.59;5024656;28;20019;-78
2023/12/21 08:50:22;;;;;;;;;;;;;;;8.56;100.00;99811.78;5038567;28;20294;-78
2023/12/21 08:52:49;;;;;;;;;;;;;;;8.49;100.00;99798.88;5041089;28;19925;-76
2023/12/21 08:55:14;;;;;;;;;;;;;;;8.51;100.00;99792.75;5032713;28;19921;-77
2023/12/21 08:57:39;;;;;;;;;;;;;;;8.54;100.00;99785.72;5016887;28;19983;-79
2023/12/21 09:00:06;;;;;;;;;;;;;;;8.49;100.00;99796.25;5028948;28;20299;-79
2023/12/21 09:02:35;;;;;;;;;;;;;;;8.52;100.00;99787.50;5040522;28;20004;-78
2023/12/21 09:05:02;;;;;;;;;;;;;;;8.53;100.00;99780.53;5040922;28;19928;-79
2023/12/21 09:07:27;;;;;;;;;;;;;;;8.55;100.00;99766.56;5037664;28;19913;-79
2023/12/21 09:09:52;;;;;;;;;;;;;;;8.61;100.00;99776.84;5018170;28;19967;-77
2023/12/21 09:12:21;;;;;;;;;;;;;;;8.63;100.00;99790.75;5025187;28;20023;-77
2023/12/21 09:14:46;;;;;;;;;;;;;;;8.74;100.00;99781.84;5038707;28;19921;-78
2023/12/21 09:17:16;;;;;;;;;;;;;;;8.76;100.00;99777.44;5026763;28;19931;-79
2023/12/21 09:19:43;;;;;;;;;;;;;;;8.81;100.00;99780.81;5038451;28;19932;-79
2023/12/21 09:22:08;;;;;;;;;;;;;;;8.86;100.00;99771.09;5043867;28;19917;-78
2023/12/21 09:24:34;;;;;;;;;;;;;;;8.99;100.00;99780.41;5047323;28;19969;-81
2023/12/21 09:26:59;;;;;;;;;;;;;;;8.97;100.00;99776.13;5036548;28;19921;-80
2023/12/21 09:29:25;;;;;;;;;;;;;;;8.99;100.00;99759.50;5042924;28;19921;-79
2023/12/21 09:31:50;;;;;;;;;;;;;;;9.00;100.00;99755.97;5043877;28;20305;-79
2023/12/21 09:34:15;;;;;;;;;;;;;;;9.06;100.00;99754.13;5014114;28;20432;-76
2023/12/21 09:36:41;;;;;;;;;;;;;;;9.09;100.00;99754.91;5028638;28;19935;-78
2023/12/21 09:39:07;;;;;;;;;;;;;;;9.08;100.00;99758.44;5029018;28;19928;-78
2023/12/21 09:41:32;;;;;;;;;;;;;;;9.06;100.00;99754.13;5042693;28;20394;-81
2023/12/21 09:43:58;;;;;;;;;;;;;;;9.15;100.00;99735.63;5021636;28;19921;-78
2023/12/21 09:46:25;;;;;;;;;;;;;;;9.25;100.00;99744.97;5027095;28;19920;-78
2023/12/21 09:48:53;;;;;;;;;;;;;;;9.29;100.00;99740.53;5041698;28;19917;-73
2023/12/21 09:51:19;;;;;;;;;;;;;;;9.30;100.00;99747.47;5030360;28;20391;-75
2023/12/21 09:53:46;;;;;;;;;;;;;;;9.38;100.00;99749.91;5041307;28;19916;-73
2023/12/21 09:56:15;;;;;;;;;;;;;;;9.42;100.00;99736.69;5049482;28;19925;-78
2023/12/21 09:58:41;;;;;;;;;;;;;;;9.52;100.00;99739.97;5050306;28;19920;-77
2023/12/21 10:01:07;;;;;;;;;;;;;;;9.56;100.00;99718.06;5049607;28;19970;-76
2023/12/21 10:03:33;;;;;;;;;;;;;;;9.62;100.00;99736.19;5032830;28;20456;-77
2023/12/21 10:05:59;;;;;;;;;;;;;;;9.67;100.00;99721.25;5032995;28;20374;-78
2023/12/21 10:08:25;;;;;;;;;;;;;;;9.71;100.00;99728.13;5039510;28;19921;-77
2023/12/21 10:10:51;;;;;;;;;;;;;;;9.78;100.00;99735.81;5048554;28;20015;-76
2023/12/21 10:13:16;;;;;;;;;;;;;;;9.80;100.00;99727.03;5049513;28;20009;-77
2023/12/21 10:15:42;;;;;;;;;;;;;;;9.73;100.00;99730.72;5028041;28;19976;-76
2023/12/21 10:18:09;;;;;;;;;;;;;;;9.77;100.00;99721.00;5039421;28;19921;-78
2023/12/21 10:20:35;;;;;;;;;;;;;;;9.84;100.00;99731.28;5024513;28;19925;-80
2023/12/21 10:23:03;;;;;;;;;;;;;;;9.93;100.00;99704.00;5036160;28;19931;-77
2023/12/21 10:25:28;;;;;;;;;;;;;;;9.98;100.00;99715.19;5052029;28;19916;-74
2023/12/21 10:27:54;;;;;;;;;;;;;;;10.03;100.00;99723.78;5058555;28;19928;-78
2023/12/21 10:30:20;;;;;;;;;;;;;;;10.07;100.00;99735.06;5052978;28;19916;-77
2023/12/21 10:32:45;;;;;;;;;;;;;;;10.19;100.00;99715.53;5026681;28;19921;-78
2023/12/21 10:35:11;;;;;;;;;;;;;;;10.18;100.00;99706.78;5032416;28;19921;-77
2023/12/21 10:37:36;;;;;;;;;;;;;;;10.24;100.00;99713.63;5026125;28;19929;-77
2023/12/21 10:40:03;;;;;;;;;;;;;;;10.26;100.00;99738.00;5039635;28;19956;-74
2023/12/21 10:42:28;;;;;;;;;;;;;;;10.31;100.00;99707.28;5034386;28;20445;-77
2023/12/21 10:44:55;;;;;;;;;;;;;;;10.53;100.00;99707.56;5034482;28;19920;-75
2023/12/21 10:47:21;;;;;;;;;;;;;;;10.61;100.00;99715.19;5047838;28;20370;-77
2023/12/21 10:49:48;;;;;;;;;;;;;;;10.67;100.00;99715.00;5104223;23;19946;-78
2023/12/21 10:52:16;;;;;;;;;;;;;;;10.62;100.00;99701.19;5085756;28;19920;-79
2023/12/21 10:54:42;;;;;;;;;;;;;;;10.50;100.00;99707.69;5073775;28;20329;-76
2023/12/21 10:57:08;;;;;;;;;;;;;;;10.43;100.00;99713.13;5068992;28;20015;-78
2023/12/21 10:59:34;;;;;;;;;;;;;;;10.34;100.00;99709.88;5075064;28;19916;-76
2023/12/21 11:02:00;;;;;;;;;;;;;;;10.28;100.00;99712.63;5082795;28;19920;-77
2023/12/21 11:04:27;;;;;;;;;;;;;;;10.30;100.00;99703.00;5092684;28;19974;-78
2023/12/21 11:06:54;;;;;;;;;;;;;;;10.29;100.00;99709.13;5076548;28;20427;-77
2023/12/21 11:09:19;;;;;;;;;;;;;;;10.31;100.00;99701.22;5077373;28;20297;-77
2023/12/21 11:11:48;;;;;;;;;;;;;;;10.18;100.00;99700.72;5074931;28;19920;-76
2023/12/21 11:14:17;;;;;;;;;;;;;;;10.09;100.00;99716.69;5082743;28;20270;-77
2023/12/21 11:16:44;;;;;;;;;;;;;;;10.05;100.00;99671.41;5065622;28;19925;-78
2023/12/21 11:19:12;;;;;;;;;;;;;;;10.03;100.00;99694.16;5090116;28;20015;-78
2023/12/21 11:21:39;;;;;;;;;;;;;;;9.99;100.00;99659.34;5133011;22;19949;-77
2023/12/21 11:24:04;;;;;;;;;;;;;;;10.05;100.00;99653.94;5074039;28;19947;-73
2023/12/21 11:26:30;;;;;;;;;;;;;;;10.21;100.00;99643.00;5088605;28;20079;-74
2023/12/21 11:29:06;;;;;;;;;;;;;;;10.29;100.00;99661.97;5075685;28;19924;-77
2023/12/21 11:31:38;;;;;;;;;;;;;;;10.36;100.00;99642.59;5068090;28;19947;-76
2023/12/21 11:34:13;;;;;;;;;;;;;;;10.35;100.00;99667.06;5072095;28;20423;-74
2023/12/21 11:36:39;;;;;;;;;;;;;;;10.43;100.00;99673.84;5127659;23;19932;-78
2023/12/21 11:39:24;;;;;;;;;;;;;;;10.52;100.00;99669.19;5065478;28;19932;-76
2023/12/21 11:42:00;;;;;;;;;;;;;;;10.49;100.00;99669.28;5064527;28;19913;-74
2023/12/21 11:44:35;;;;;;;;;;;;;;;10.46;100.00;99658.03;5083753;28;20337;-74
2023/12/21 11:47:01;;;;;;;;;;;;;;;10.37;100.00;99664.41;5082620;28;20315;-75
2023/12/21 11:49:26;;;;;;;;;;;;;;;10.45;100.00;99672.03;5053429;28;19925;-77
2023/12/21 11:51:52;;;;;;;;;;;;;;;10.48;100.00;99669.34;5082713;28;20019;-78
2023/12/21 11:54:18;;;;;;;;;;;;;;;10.51;100.00;99640.41;5088922;28;19912;-78
2023/12/21 11:56:45;;;;;;;;;;;;;;;10.46;100.00;99650.16;5088944;28;20385;-77
2023/12/21 11:59:14;;;;;;;;;;;;;;;10.42;100.00;99651.19;5049661;28;19924;-78
2023/12/21 12:01:41;;;;;;;;;;;;;;;10.39;100.00;99624.16;5081349;28;19923;-76
2023/12/21 12:04:10;;;;;;;;;;;;;;;10.35;100.00;99585.88;5098795;28;19920;-77
2023/12/21 12:06:36;;;;;;;;;;;;;;;10.42;100.00;99593.56;5087026;28;20987;-79
2023/12/21 12:09:02;;;;;;;;;;;;;;;10.37;100.00;99615.53;5087805;28;19923;-79
2023/12/21 12:11:28;;;;;;;;;;;;;;;10.43;100.00;99631.94;5071531;28;19931;-74
2023/12/21 12:13:56;;;;;;;;;;;;;;;10.46;100.00;99632.72;5083451;28;19916;-76
2023/12/21 12:16:21;;;;;;;;;;;;;;;10.47;100.00;99617.84;5083328;28;19920;-76
2023/12/21 12:18:46;;;;;;;;;;;;;;;10.55;100.00;99637.66;5068922;28;20520;-78
2023/12/21 12:21:12;;;;;;;;;;;;;;;10.47;100.00;99633.56;5071421;28;20413;-77
2023/12/21 12:23:37;;;;;;;;;;;;;;;10.51;100.00;99619.47;5095997;28;19943;-76
2023/12/21 12:26:02;;;;;;;;;;;;;;;10.44;100.00;99644.13;5079917;28;19923;-77
2023/12/21 12:28:28;;;;;;;;;;;;;;;10.37;100.00;99635.59;5089782;28;19916;-76
2023/12/21 12:30:54;;;;;;;;;;;;;;;10.48;100.00;99635.28;5068496;28;19970;-79
2023/12/21 12:33:19;;;;;;;;;;;;;;;10.48;100.00;99624.81;5074711;28;19982;-77